FLL weather

Fort Lauderdale Hollywood International Airport
Fort Lauderdale, Florida, United States

Public forecast

Using degrees Fahrenheit for public forecast. Weather courtesy of forecast.io.

Current aviation weather report (METAR) for Fort Lauderdale Hollywood International Airport

Retrieved 2019/10/17 03:53 UTC (28 minutes ago):

KFLL 170353Z 27007KT 10SM CLR 27/23 A2992 RMK AO2 SLP132 T02670233

Aviation forecast (TAF) for Fort Lauderdale Hollywood International Airport

Retrieved 2019-10-17 00:30 UTC (4 hours ago):

TAF KFLL 162327Z 1700/1806 26006KT P6SM FEW040 SCT250 FM170300 VRB03KT P6SM SCT030 FM171600 26006KT P6SM VCSH SCT030 SCT090 FM172000 26008KT P6SM VCTS SCT030CB BKN110 FM180200 VRB03KT P6SM SCT030